createdAt,value
2018-07-02T00:01:53.335Z,13.79
2018-07-02T00:04:59.390Z,13.75
2018-07-02T00:08:05.492Z,13.70
2018-07-02T00:11:10.824Z,13.63
2018-07-02T00:14:18.426Z,13.62
2018-07-02T00:17:24.448Z,13.55
2018-07-02T00:20:30.590Z,13.50
2018-07-02T00:23:35.912Z,13.46
2018-07-02T00:26:40.993Z,13.46
2018-07-02T00:29:46.345Z,13.42
2018-07-02T00:32:52.599Z,13.35
2018-07-02T00:35:57.911Z,13.32
2018-07-02T00:39:06.517Z,13.26
2018-07-02T00:42:12.553Z,13.22
2018-07-02T00:45:18.219Z,13.16
2018-07-02T00:48:24.447Z,13.12
2018-07-02T00:51:29.774Z,13.08
2018-07-02T00:54:35.124Z,13.02
2018-07-02T00:57:41.482Z,13.00
2018-07-02T01:00:47.422Z,12.95
2018-07-02T01:03:54.226Z,12.88
2018-07-02T01:06:59.607Z,12.82
2018-07-02T01:10:05.864Z,12.79
2018-07-02T01:13:11.665Z,12.77
2018-07-02T01:16:16.705Z,12.69
2018-07-02T01:19:22.697Z,12.68
2018-07-02T01:22:29.551Z,12.64
2018-07-02T01:25:35.574Z,12.58
2018-07-02T01:28:40.670Z,12.55
2018-07-02T01:31:51.130Z,12.51
2018-07-02T01:34:56.710Z,12.44
2018-07-02T01:38:02.029Z,12.44
2018-07-02T01:41:07.083Z,12.37
2018-07-02T01:44:12.430Z,12.34
2018-07-02T01:47:18.186Z,12.29
2018-07-02T01:50:23.209Z,12.26
2018-07-02T01:53:29.385Z,12.25
2018-07-02T01:56:35.537Z,12.20
2018-07-02T01:59:41.490Z,12.15
2018-07-02T02:02:46.777Z,12.12
2018-07-02T02:05:53.245Z,12.07
2018-07-02T02:08:59.250Z,12.06
2018-07-02T02:12:04.908Z,12.00
2018-07-02T02:15:11.100Z,11.97
2018-07-02T02:18:17.562Z,11.92
2018-07-02T02:21:23.515Z,11.90
2018-07-02T02:24:28.851Z,11.87
2018-07-02T02:27:34.219Z,11.83
2018-07-02T02:30:39.566Z,11.80
2018-07-02T02:33:44.907Z,11.79
2018-07-02T02:36:50.600Z,11.72
2018-07-02T02:39:58.104Z,11.72
2018-07-02T02:43:03.929Z,11.69
2018-07-02T02:46:09.822Z,11.67
2018-07-02T02:49:15.762Z,11.58
2018-07-02T02:52:21.061Z,11.56
2018-07-02T02:55:26.904Z,11.52
2018-07-02T02:58:32.864Z,11.51
2018-07-02T03:01:38.211Z,11.44
2018-07-02T03:04:43.553Z,11.42
2018-07-02T03:07:49.190Z,11.39
2018-07-02T03:10:55.503Z,11.35
2018-07-02T03:14:00.549Z,11.32
2018-07-02T03:17:06.618Z,11.32
2018-07-02T03:20:12.924Z,11.27
2018-07-02T03:23:18.568Z,11.27
2018-07-02T03:26:25.627Z,11.26
2018-07-02T03:29:31.866Z,11.20
2018-07-02T03:32:37.157Z,11.20
2018-07-02T03:35:42.493Z,11.14
2018-07-02T03:38:48.154Z,11.16
2018-07-02T03:41:54.298Z,11.13
2018-07-02T03:45:00.422Z,11.12
2018-07-02T03:48:06.110Z,11.08
2018-07-02T03:51:12.377Z,11.10
2018-07-02T03:54:18.285Z,11.06
2018-07-02T03:57:24.393Z,11.06
2018-07-02T04:00:29.722Z,11.04
2018-07-02T04:03:35.078Z,11.02
2018-07-02T04:06:41.561Z,11.06
2018-07-02T04:09:47.614Z,11.05
2018-07-02T04:13:05.272Z,11.08
2018-07-02T04:16:22.232Z,11.05
2018-07-02T04:19:51.406Z,11.06
2018-07-02T04:23:00.837Z,11.06
2018-07-02T04:26:06.683Z,11.09
2018-07-02T04:29:13.751Z,11.09
2018-07-02T04:32:20.160Z,11.10
2018-07-02T04:35:25.976Z,11.10
2018-07-02T04:38:31.248Z,11.08
2018-07-02T04:41:36.663Z,11.13
2018-07-02T04:44:42.756Z,11.08
2018-07-02T04:47:48.069Z,11.11
2018-07-02T04:50:55.309Z,11.12
2018-07-02T04:54:01.136Z,11.18
2018-07-02T04:57:07.416Z,11.21
2018-07-02T05:00:13.724Z,11.21
2018-07-02T05:03:20.686Z,11.24
2018-07-02T05:06:26.767Z,11.24
2018-07-02T05:09:33.033Z,11.31
2018-07-02T05:12:38.270Z,11.34
2018-07-02T05:15:43.840Z,11.42
2018-07-02T05:18:50.781Z,11.46
2018-07-02T05:21:56.231Z,11.51
2018-07-02T05:25:01.361Z,11.59
2018-07-02T05:28:06.448Z,11.67
2018-07-02T05:31:11.892Z,11.73
2018-07-02T05:34:17.531Z,11.83
2018-07-02T05:37:23.698Z,12.00
2018-07-02T05:40:29.756Z,12.12
2018-07-02T05:43:35.477Z,12.19
2018-07-02T05:46:40.570Z,12.28
2018-07-02T05:49:45.652Z,12.36
2018-07-02T05:52:50.735Z,12.43
2018-07-02T05:55:55.540Z,12.50
2018-07-02T05:59:01.331Z,12.59
2018-07-02T06:02:06.445Z,12.66
2018-07-02T06:05:11.278Z,12.72
2018-07-02T06:08:16.090Z,12.82
2018-07-02T06:11:21.508Z,12.89
2018-07-02T06:14:27.957Z,12.97
2018-07-02T06:17:34.033Z,13.05
2018-07-02T06:20:39.992Z,13.13
2018-07-02T06:23:45.355Z,13.22
2018-07-02T06:26:50.458Z,13.31
2018-07-02T06:29:55.581Z,13.39
2018-07-02T06:33:02.007Z,13.48
2018-07-02T06:36:07.081Z,13.57
2018-07-02T06:39:12.425Z,13.65
2018-07-02T06:42:17.536Z,13.75
2018-07-02T06:45:23.650Z,13.84
2018-07-02T06:48:29.153Z,13.92
2018-07-02T06:51:36.362Z,14.01
2018-07-02T06:54:41.877Z,14.09
2018-07-02T06:57:46.990Z,14.18
2018-07-02T07:00:51.893Z,14.28
2018-07-02T07:03:57.148Z,14.36
2018-07-02T07:07:03.016Z,14.44
2018-07-02T07:10:09.301Z,14.55
2018-07-02T07:13:15.557Z,14.65
2018-07-02T07:16:21.090Z,14.75
2018-07-02T07:19:27.676Z,14.86
2018-07-02T07:22:33.190Z,14.97
2018-07-02T07:25:38.350Z,15.07
2018-07-02T07:28:43.945Z,15.20
2018-07-02T07:31:49.025Z,15.31
2018-07-02T07:34:54.616Z,15.40
2018-07-02T07:38:00.071Z,15.53
2018-07-02T07:41:05.517Z,15.64
2018-07-02T07:44:10.638Z,15.74
2018-07-02T07:47:16.676Z,15.87
2018-07-02T07:50:22.582Z,15.98
2018-07-02T07:53:28.042Z,16.12
2018-07-02T07:56:34.028Z,16.23
2018-07-02T07:59:39.121Z,16.37
2018-07-02T08:02:44.660Z,16.49
2018-07-02T08:05:49.719Z,16.62
2018-07-02T08:08:55.206Z,16.76
2018-07-02T08:12:01.536Z,16.86
2018-07-02T08:15:08.657Z,16.96
2018-07-02T08:18:14.713Z,17.09
2018-07-02T08:21:20.857Z,17.24
2018-07-02T08:24:26.584Z,17.36
2018-07-02T08:27:32.903Z,17.50
2018-07-02T08:30:38.633Z,17.62
2018-07-02T08:33:43.989Z,17.75
2018-07-02T08:36:49.886Z,17.88
2018-07-02T08:39:55.989Z,17.99
2018-07-02T08:43:01.877Z,18.12
2018-07-02T08:46:08.089Z,18.22
2018-07-02T08:49:13.474Z,18.37
2018-07-02T08:52:19.557Z,18.49
2018-07-02T08:55:25.379Z,18.63
2018-07-02T08:58:30.482Z,18.78
2018-07-02T09:01:36.553Z,18.93
2018-07-02T09:04:42.382Z,19.05
2018-07-02T09:07:47.464Z,19.20
2018-07-02T09:10:53.602Z,19.34
2018-07-02T09:13:58.721Z,19.48
2018-07-02T09:17:04.606Z,19.61
2018-07-02T09:20:09.715Z,19.72
2018-07-02T09:23:15.271Z,19.87
2018-07-02T09:26:20.373Z,20.02
2018-07-02T09:29:25.788Z,20.17
2018-07-02T09:32:31.265Z,20.35
2018-07-02T09:35:37.681Z,20.48
2018-07-02T09:38:44.141Z,20.60
2018-07-02T09:41:49.852Z,20.77
2018-07-02T09:44:56.107Z,20.92
2018-07-02T09:48:01.227Z,21.06
2018-07-02T09:51:06.592Z,21.23
2018-07-02T09:54:11.698Z,21.38
2018-07-02T09:57:17.070Z,21.54
2018-07-02T10:00:22.182Z,21.74
2018-07-02T10:03:27.306Z,21.87
2018-07-02T10:06:32.763Z,22.08
2018-07-02T10:09:38.705Z,22.47
2018-07-02T10:12:43.794Z,22.67
2018-07-02T10:15:48.626Z,22.74
2018-07-02T10:18:54.731Z,22.65
2018-07-02T10:21:59.831Z,22.64
2018-07-02T10:25:05.553Z,22.61
2018-07-02T10:28:11.461Z,22.64
2018-07-02T10:31:17.710Z,22.66
2018-07-02T10:34:23.688Z,22.62
2018-07-02T10:37:29.713Z,22.53
2018-07-02T10:40:35.918Z,22.47
2018-07-02T10:43:40.981Z,22.48
2018-07-02T10:46:46.415Z,22.52
2018-07-02T10:49:52.961Z,22.55
2018-07-02T10:52:59.049Z,22.63
2018-07-02T10:56:04.214Z,22.66
2018-07-02T10:59:09.646Z,22.76
2018-07-02T11:02:15.104Z,22.83
2018-07-02T11:05:21.957Z,22.91
2018-07-02T11:08:27.034Z,23.01
2018-07-02T11:11:32.480Z,23.08
2018-07-02T11:14:38.079Z,23.12
2018-07-02T11:17:43.865Z,23.20
2018-07-02T11:20:48.998Z,23.23
2018-07-02T11:23:54.122Z,23.28
2018-07-02T11:27:00.386Z,23.34
2018-07-02T11:30:06.368Z,23.38
2018-07-02T11:33:12.452Z,23.40
2018-07-02T11:36:18.316Z,23.39
2018-07-02T11:39:24.362Z,23.46
2018-07-02T11:42:30.705Z,23.49
2018-07-02T11:45:36.451Z,23.52
2018-07-02T11:48:41.614Z,23.57
2018-07-02T11:51:46.693Z,23.65
2018-07-02T11:54:51.516Z,23.73
2018-07-02T11:57:57.367Z,23.77
2018-07-02T12:01:03.164Z,23.81
2018-07-02T12:04:08.598Z,23.83
2018-07-02T12:07:13.825Z,23.87
2018-07-02T12:10:18.931Z,23.89
2018-07-02T12:13:23.925Z,23.94
2018-07-02T12:16:29.762Z,23.99
2018-07-02T12:19:35.185Z,24.02
2018-07-02T12:22:40.336Z,24.02
2018-07-02T12:25:45.452Z,24.07
2018-07-02T12:28:50.518Z,24.10
2018-07-02T12:31:55.616Z,24.13
2018-07-02T12:35:01.047Z,24.13
2018-07-02T12:38:06.110Z,24.12
2018-07-02T12:41:11.648Z,24.08
2018-07-02T12:44:17.649Z,24.03
2018-07-02T12:47:23.173Z,24.01
2018-07-02T12:50:28.626Z,24.03
2018-07-02T12:53:34.724Z,24.08
2018-07-02T12:56:39.850Z,24.09
2018-07-02T12:59:46.851Z,24.17
2018-07-02T13:02:52.349Z,24.25
2018-07-02T13:05:57.442Z,24.36
2018-07-02T13:09:06.013Z,24.45
2018-07-02T13:12:11.120Z,24.55
2018-07-02T13:15:16.616Z,24.62
2018-07-02T13:18:21.460Z,24.71
2018-07-02T13:21:27.357Z,24.83
2018-07-02T13:24:32.814Z,24.91
2018-07-02T13:27:39.217Z,24.91
2018-07-02T13:30:45.128Z,24.94
2018-07-02T13:33:50.560Z,24.97
2018-07-02T13:36:56.507Z,24.99
2018-07-02T13:40:01.592Z,25.03
2018-07-02T13:43:08.050Z,25.07
2018-07-02T13:46:13.920Z,25.13
2018-07-02T13:49:18.757Z,25.21
2018-07-02T13:52:24.248Z,25.26
2018-07-02T13:55:30.312Z,25.27
2018-07-02T13:58:35.478Z,25.35
2018-07-02T14:01:41.569Z,25.43
2018-07-02T14:04:46.905Z,25.49
2018-07-02T14:07:51.998Z,25.53
2018-07-02T14:10:57.400Z,25.59
2018-07-02T14:14:03.980Z,25.63
2018-07-02T14:17:09.062Z,25.67
2018-07-02T14:20:14.597Z,25.69
2018-07-02T14:23:20.715Z,25.75
2018-07-02T14:26:26.155Z,25.76
2018-07-02T14:29:30.944Z,25.77
2018-07-02T14:32:35.845Z,25.82
2018-07-02T14:35:42.248Z,25.84
2018-07-02T14:38:47.783Z,25.89
2018-07-02T14:41:53.463Z,25.93
2018-07-02T14:44:59.499Z,25.98
2018-07-02T14:48:05.500Z,25.97
2018-07-02T14:51:10.591Z,25.96
2018-07-02T14:54:15.684Z,25.96
2018-07-02T14:57:21.977Z,25.93
2018-07-02T15:00:27.437Z,25.94
2018-07-02T15:03:32.534Z,25.96
2018-07-02T15:06:37.646Z,25.92
2018-07-02T15:09:43.728Z,25.87
2018-07-02T15:12:49.822Z,25.79
2018-07-02T15:15:55.509Z,25.69
2018-07-02T15:19:01.269Z,25.62
2018-07-02T15:22:06.590Z,25.55
2018-07-02T15:25:12.792Z,25.52
2018-07-02T15:28:18.818Z,25.46
2018-07-02T15:31:24.241Z,25.43
2018-07-02T15:34:30.571Z,25.39
2018-07-02T15:37:37.013Z,25.38
2018-07-02T15:40:43.159Z,25.32
2018-07-02T15:43:49.259Z,25.30
2018-07-02T15:46:55.407Z,25.29
2018-07-02T15:50:01.765Z,25.28
2018-07-02T15:53:07.943Z,25.28
2018-07-02T15:56:14.562Z,25.25
2018-07-02T15:59:20.009Z,25.25
2018-07-02T16:02:25.872Z,25.24
2018-07-02T16:05:31.799Z,25.20
2018-07-02T16:08:37.437Z,25.19
2018-07-02T16:11:43.861Z,25.18
2018-07-02T16:14:49.614Z,25.17
2018-07-02T16:17:55.278Z,25.14
2018-07-02T16:21:01.075Z,25.11
2018-07-02T16:24:07.956Z,25.08
2018-07-02T16:27:13.143Z,25.01
2018-07-02T16:30:18.579Z,24.97
2018-07-02T16:33:24.460Z,24.96
2018-07-02T16:36:29.801Z,24.92
2018-07-02T16:39:35.495Z,24.85
2018-07-02T16:42:41.609Z,24.77
2018-07-02T16:45:47.610Z,24.75
2018-07-02T16:48:54.449Z,24.69
2018-07-02T16:51:59.565Z,24.61
2018-07-02T16:55:04.718Z,24.53
2018-07-02T16:58:09.941Z,24.46
2018-07-02T17:01:15.429Z,24.42
2018-07-02T17:04:20.521Z,24.32
2018-07-02T17:07:25.637Z,24.27
2018-07-02T17:10:30.450Z,24.18
2018-07-02T17:13:36.214Z,24.14
2018-07-02T17:16:41.317Z,24.05
2018-07-02T17:19:46.946Z,23.98
2018-07-02T17:22:52.209Z,23.89
2018-07-02T17:25:57.368Z,23.84
2018-07-02T17:29:03.016Z,23.75
2018-07-02T17:32:08.812Z,23.68
2018-07-02T17:35:14.181Z,23.62
2018-07-02T17:38:19.293Z,23.53
2018-07-02T17:41:24.448Z,23.45
2018-07-02T17:44:29.328Z,23.39
2018-07-02T17:47:35.000Z,23.33
2018-07-02T17:50:40.282Z,23.27
2018-07-02T17:53:46.220Z,23.18
2018-07-02T17:56:51.593Z,23.10
2018-07-02T17:59:57.085Z,23.01
2018-07-02T18:03:03.053Z,22.94
2018-07-02T18:06:08.272Z,22.87
2018-07-02T18:09:14.710Z,22.81
2018-07-02T18:12:21.129Z,22.75
2018-07-02T18:15:26.629Z,22.68
2018-07-02T18:18:32.764Z,22.63
2018-07-02T18:21:38.610Z,22.55
2018-07-02T18:24:44.555Z,22.48
2018-07-02T18:27:50.605Z,22.40
2018-07-02T18:30:56.636Z,22.35
2018-07-02T18:34:02.744Z,22.24
2018-07-02T18:37:08.991Z,22.18
2018-07-02T18:40:14.564Z,22.11
2018-07-02T18:43:20.548Z,22.03
2018-07-02T18:46:32.443Z,21.95
2018-07-02T18:49:37.799Z,21.88
2018-07-02T18:52:43.009Z,21.81
2018-07-02T18:55:48.167Z,21.73
2018-07-02T18:58:53.305Z,21.66
2018-07-02T19:01:58.572Z,21.60
2018-07-02T19:05:03.908Z,21.52
2018-07-02T19:08:08.742Z,21.44
2018-07-02T19:11:14.270Z,21.37
2018-07-02T19:14:19.161Z,21.28
2018-07-02T19:17:24.672Z,21.18
2018-07-02T19:20:30.621Z,21.07
2018-07-02T19:23:37.425Z,20.97
2018-07-02T19:26:43.019Z,20.87
2018-07-02T19:29:48.507Z,20.81
2018-07-02T19:32:54.709Z,20.72
2018-07-02T19:36:00.349Z,20.64
2018-07-02T19:39:10.426Z,20.57
2018-07-02T19:42:16.397Z,20.50
2018-07-02T19:45:22.528Z,20.42
2018-07-02T19:48:27.936Z,20.36
2018-07-02T19:51:34.384Z,20.28
2018-07-02T19:54:39.834Z,20.24
2018-07-02T19:57:45.004Z,20.18
2018-07-02T20:00:50.477Z,20.12
2018-07-02T20:03:56.490Z,20.06
2018-07-02T20:07:01.741Z,19.99
2018-07-02T20:10:08.019Z,19.92
2018-07-02T20:13:13.753Z,19.89
2018-07-02T20:16:19.030Z,19.82
2018-07-02T20:19:25.085Z,19.75
2018-07-02T20:22:31.131Z,19.69
2018-07-02T20:25:37.135Z,19.61
2018-07-02T20:28:43.249Z,19.55
2018-07-02T20:31:48.718Z,19.48
2018-07-02T20:34:54.927Z,19.40
2018-07-02T20:38:01.365Z,19.33
2018-07-02T20:41:07.820Z,19.23
2018-07-02T20:44:13.170Z,19.17
2018-07-02T20:47:19.233Z,19.08
2018-07-02T20:50:25.378Z,19.00
2018-07-02T20:53:31.272Z,18.92
2018-07-02T20:56:36.909Z,18.85
2018-07-02T20:59:44.280Z,18.75
2018-07-02T21:02:49.993Z,18.67
2018-07-02T21:05:57.029Z,18.58
2018-07-02T21:09:01.990Z,18.52
2018-07-02T21:12:07.816Z,18.40
2018-07-02T21:15:13.611Z,18.34
2018-07-02T21:18:18.733Z,18.25
2018-07-02T21:21:24.065Z,18.18
2018-07-02T21:24:29.501Z,18.09
2018-07-02T21:27:34.316Z,18.03
2018-07-02T21:30:39.845Z,17.96
2018-07-02T21:33:45.014Z,17.93
2018-07-02T21:36:50.829Z,17.85
2018-07-02T21:39:56.591Z,17.79
2018-07-02T21:43:02.281Z,17.73
2018-07-02T21:46:07.607Z,17.63
2018-07-02T21:49:13.011Z,17.56
2018-07-02T21:52:24.954Z,17.48
2018-07-02T21:55:30.191Z,17.43
2018-07-02T21:58:36.331Z,17.37
2018-07-02T22:01:42.504Z,17.33
2018-07-02T22:04:47.698Z,17.27
2018-07-02T22:07:53.919Z,17.23
2018-07-02T22:11:00.208Z,17.11
2018-07-02T22:14:06.504Z,17.06
2018-07-02T22:17:12.252Z,16.99
2018-07-02T22:20:18.788Z,16.92
2018-07-02T22:23:24.969Z,16.88
2018-07-02T22:26:32.521Z,16.80
2018-07-02T22:29:38.434Z,16.75
2018-07-02T22:32:43.874Z,16.69
2018-07-02T22:35:48.966Z,16.63
2018-07-02T22:38:54.061Z,16.56
2018-07-02T22:41:59.990Z,16.51
2018-07-02T22:45:05.336Z,16.45
2018-07-02T22:48:10.786Z,16.38
2018-07-02T22:51:16.102Z,16.32
2018-07-02T22:54:21.225Z,16.26
2018-07-02T22:57:27.333Z,16.23
2018-07-02T23:00:32.836Z,16.16
2018-07-02T23:03:37.665Z,16.11
2018-07-02T23:06:44.420Z,16.04
2018-07-02T23:09:50.980Z,15.98
2018-07-02T23:12:56.254Z,15.94
2018-07-02T23:16:01.381Z,15.88
2018-07-02T23:19:06.486Z,15.84
2018-07-02T23:22:12.854Z,15.77
2018-07-02T23:25:18.500Z,15.71
2018-07-02T23:28:24.384Z,15.67
2018-07-02T23:31:30.639Z,15.59
2018-07-02T23:34:36.532Z,15.54
2018-07-02T23:37:41.932Z,15.49
2018-07-02T23:40:48.253Z,15.46
2018-07-02T23:43:54.367Z,15.42
2018-07-02T23:47:00.070Z,15.36
2018-07-02T23:50:06.403Z,15.31
2018-07-02T23:53:12.260Z,15.25
2018-07-02T23:56:18.503Z,15.21
2018-07-02T23:59:24.598Z,15.20
